Time;durP1;ratioP1;P1;durP2;ratioP2;P2;SDS_P1;SDS_P2;PMS_P1;PMS_P2;Temp;Humidity;BMP_temperature;BMP_pressure;BME280_temperature;BME280_humidity;BME280_pressure;Samples;Min_cycle;Max_cycle;Signal;HPM_P1;HPM_P2
2022/03/13 00:02:16;;;;;;;;;;;;;;;16.38;43.89;99546.91;4429481;32;19957;-71
2022/03/13 00:04:44;;;;;;;;;;;;;;;16.35;43.88;99548.69;4426860;32;20316;-70
2022/03/13 00:07:19;;;;;;;;;;;;;;;16.41;43.66;99543.81;4415849;32;20415;-70
2022/03/13 00:09:49;;;;;;;;;;;;;;;16.18;44.24;99547.81;4428655;32;20039;-70
2022/03/13 00:12:19;;;;;;;;;;;;;;;16.32;43.93;99549.69;4428875;32;20945;-69
2022/03/13 00:14:46;;;;;;;;;;;;;;;16.31;44.19;99533.19;4430944;32;19997;-69
2022/03/13 00:17:14;;;;;;;;;;;;;;;16.43;43.88;99543.31;4432577;32;19969;-70
2022/03/13 00:19:39;;;;;;;;;;;;;;;16.29;44.01;99533.69;4429048;32;19969;-70
2022/03/13 00:22:05;;;;;;;;;;;;;;;16.56;43.56;99529.47;4430704;32;19998;-70
2022/03/13 00:24:31;;;;;;;;;;;;;;;16.41;43.99;99526.78;4425727;32;20386;-70
2022/03/13 00:26:57;;;;;;;;;;;;;;;16.21;44.64;99521.25;4429189;32;20377;-70
2022/03/13 00:29:23;;;;;;;;;;;;;;;16.48;44.11;99523.53;4427091;32;19954;-70
2022/03/13 00:31:49;;;;;;;;;;;;;;;15.96;45.34;99510.78;4428358;32;19981;-70
2022/03/13 00:34:14;;;;;;;;;;;;;;;16.07;45.04;99518.59;4429556;32;19993;-70
2022/03/13 00:36:41;;;;;;;;;;;;;;;16.25;44.85;99506.81;4430250;32;20424;-70
2022/03/13 00:39:06;;;;;;;;;;;;;;;16.06;45.18;99508.50;4428655;32;20261;-70
2022/03/13 00:41:32;;;;;;;;;;;;;;;15.95;45.49;99507.16;4427067;32;19950;-70
2022/03/13 00:43:58;;;;;;;;;;;;;;;16.30;44.79;99506.88;4428617;32;20039;-70
2022/03/13 00:46:23;;;;;;;;;;;;;;;16.05;45.25;99493.56;4432158;32;20049;-70
2022/03/13 00:48:50;;;;;;;;;;;;;;;16.21;45.15;99503.44;4428380;32;19960;-70
2022/03/13 00:51:16;;;;;;;;;;;;;;;16.28;44.85;99500.13;4428621;32;20240;-70
2022/03/13 00:53:43;;;;;;;;;;;;;;;16.02;45.45;99500.25;4429038;32;19990;-70
2022/03/13 00:56:10;;;;;;;;;;;;;;;16.12;45.40;99490.25;4430195;32;20391;-70
2022/03/13 00:58:37;;;;;;;;;;;;;;;16.11;45.51;99480.19;4427568;32;20038;-70
2022/03/13 01:01:03;;;;;;;;;;;;;;;16.00;45.60;99471.59;4426382;32;19986;-70
2022/03/13 01:03:33;;;;;;;;;;;;;;;15.86;46.10;99481.81;4429865;32;19953;-70
2022/03/13 01:05:58;;;;;;;;;;;;;;;15.94;45.95;99470.75;4419160;32;19980;-70
2022/03/13 01:08:24;;;;;;;;;;;;;;;15.88;46.11;99465.06;4419550;32;20343;-70
2022/03/13 01:10:50;;;;;;;;;;;;;;;15.89;46.16;99471.50;4418588;32;21090;-70
2022/03/13 01:13:16;;;;;;;;;;;;;;;16.10;45.79;99464.41;4416155;32;20430;-70
2022/03/13 01:15:49;;;;;;;;;;;;;;;15.83;46.33;99471.47;4417876;32;19993;-70
2022/03/13 01:18:14;;;;;;;;;;;;;;;16.26;45.54;99469.41;4415272;32;20449;-71
2022/03/13 01:20:41;;;;;;;;;;;;;;;16.25;45.40;99473.53;4421668;32;20012;-70
2022/03/13 01:23:08;;;;;;;;;;;;;;;16.04;45.98;99465.69;4404260;32;20324;-70
2022/03/13 01:25:33;;;;;;;;;;;;;;;16.38;45.20;99471.00;4418929;32;20002;-70
2022/03/13 01:28:00;;;;;;;;;;;;;;;15.94;46.35;99462.25;4416388;32;20030;-70
2022/03/13 01:30:26;;;;;;;;;;;;;;;15.77;46.81;99461.34;4416602;32;20984;-70
2022/03/13 01:32:53;;;;;;;;;;;;;;;16.40;45.26;99462.00;4403084;32;19969;-70
2022/03/13 01:35:19;;;;;;;;;;;;;;;15.99;46.18;99453.78;4419149;32;20778;-70
2022/03/13 01:37:45;;;;;;;;;;;;;;;16.30;45.66;99464.28;4405503;32;19990;-70
2022/03/13 01:40:12;;;;;;;;;;;;;;;16.10;46.39;99449.47;4417635;32;19972;-69
2022/03/13 01:42:40;;;;;;;;;;;;;;;16.02;46.53;99448.38;4420003;32;20614;-70
2022/03/13 01:45:07;;;;;;;;;;;;;;;15.66;47.41;99447.88;4419109;32;19993;-70
2022/03/13 01:47:33;;;;;;;;;;;;;;;16.07;46.55;99439.88;4416680;32;20000;-69
2022/03/13 01:49:58;;;;;;;;;;;;;;;16.07;46.43;99439.13;4406674;32;20098;-71
2022/03/13 01:52:25;;;;;;;;;;;;;;;16.05;46.66;99433.19;4417107;32;20080;-71
2022/03/13 01:54:51;;;;;;;;;;;;;;;16.00;46.60;99426.19;4418467;32;19949;-71
2022/03/13 01:57:18;;;;;;;;;;;;;;;15.98;46.72;99433.66;4405749;32;20357;-71
2022/03/13 01:59:44;;;;;;;;;;;;;;;15.75;47.23;99410.03;4415896;32;19961;-69
2022/03/13 02:02:10;;;;;;;;;;;;;;;15.78;47.26;99423.97;4418116;32;19949;-71
2022/03/13 02:04:36;;;;;;;;;;;;;;;16.19;46.36;99420.84;4419943;32;20011;-71
2022/03/13 02:07:03;;;;;;;;;;;;;;;15.74;47.33;99428.34;4416792;32;20402;-71
2022/03/13 02:09:28;;;;;;;;;;;;;;;16.27;46.39;99436.91;4417883;32;20349;-71
2022/03/13 02:11:55;;;;;;;;;;;;;;;15.98;46.88;99432.38;4418154;32;20015;-71
2022/03/13 02:14:22;;;;;;;;;;;;;;;16.53;45.87;99426.19;4415206;32;20000;-69
2022/03/13 02:16:48;;;;;;;;;;;;;;;16.37;46.12;99429.72;4417201;32;19957;-71
2022/03/13 02:19:14;;;;;;;;;;;;;;;15.91;47.37;99420.72;4416376;32;20001;-71
2022/03/13 02:21:44;;;;;;;;;;;;;;;15.91;46.92;99423.53;4413418;32;20426;-70
2022/03/13 02:24:14;;;;;;;;;;;;;;;16.54;45.95;99405.03;4418493;32;20316;-71
2022/03/13 02:26:42;;;;;;;;;;;;;;;16.94;45.20;99401.00;4417664;32;20104;-71
2022/03/13 02:29:10;;;;;;;;;;;;;;;16.34;46.28;99396.69;4419123;32;20445;-70
2022/03/13 02:31:37;;;;;;;;;;;;;;;16.65;45.61;99390.87;4416528;32;19949;-71
2022/03/13 02:34:03;;;;;;;;;;;;;;;16.33;46.38;99392.28;4421724;32;20005;-71
2022/03/13 02:36:40;;;;;;;;;;;;;;;16.30;46.61;99401.03;4415157;32;20125;-70
2022/03/13 02:39:06;;;;;;;;;;;;;;;16.31;46.63;99399.75;4414129;32;19954;-71
2022/03/13 02:41:32;;;;;;;;;;;;;;;16.63;45.90;99393.44;4412574;32;19949;-71
2022/03/13 02:43:59;;;;;;;;;;;;;;;16.74;45.77;99396.31;4415636;32;20017;-71
2022/03/13 02:46:42;;;;;;;;;;;;;;;16.88;45.50;99388.84;4416586;32;19989;-70
2022/03/13 02:49:08;;;;;;;;;;;;;;;16.85;45.37;99373.63;4417623;32;20335;-71
2022/03/13 02:51:34;;;;;;;;;;;;;;;16.97;45.05;99375.16;4415628;32;20048;-71
2022/03/13 02:53:59;;;;;;;;;;;;;;;16.86;45.38;99378.00;4415692;32;19961;-71
2022/03/13 02:56:25;;;;;;;;;;;;;;;16.96;45.16;99365.09;4415453;32;19950;-71
2022/03/13 02:58:51;;;;;;;;;;;;;;;16.71;45.73;99356.78;4415704;32;20272;-71
2022/03/13 03:01:18;;;;;;;;;;;;;;;16.44;46.14;99344.06;4416867;32;20223;-70
2022/03/13 03:03:43;;;;;;;;;;;;;;;16.42;46.30;99352.31;4415224;32;20308;-70
2022/03/13 03:06:12;;;;;;;;;;;;;;;16.19;46.84;99356.34;4416889;32;20274;-70
2022/03/13 03:08:38;;;;;;;;;;;;;;;16.69;45.77;99345.94;4413705;32;19965;-70
2022/03/13 03:11:03;;;;;;;;;;;;;;;16.84;45.25;99348.56;4417906;32;19972;-70
2022/03/13 03:13:29;;;;;;;;;;;;;;;16.89;45.33;99351.41;4413674;32;19971;-70
2022/03/13 03:15:54;;;;;;;;;;;;;;;16.62;45.79;99345.66;4415921;32;19971;-71
2022/03/13 03:18:21;;;;;;;;;;;;;;;16.22;46.78;99349.66;4419496;32;19961;-71
2022/03/13 03:20:46;;;;;;;;;;;;;;;16.28;46.73;99353.28;4414751;32;20001;-71
2022/03/13 03:23:12;;;;;;;;;;;;;;;16.57;45.98;99346.44;4417187;32;19994;-71
2022/03/13 03:25:38;;;;;;;;;;;;;;;16.72;45.74;99342.06;4417621;32;21050;-71
2022/03/13 03:28:04;;;;;;;;;;;;;;;16.83;45.27;99332.78;4416131;32;19949;-71
2022/03/13 03:30:30;;;;;;;;;;;;;;;16.99;45.09;99344.16;4413363;32;19985;-71
2022/03/13 03:32:56;;;;;;;;;;;;;;;16.33;46.17;99346.88;4400953;32;20637;-71
2022/03/13 03:35:24;;;;;;;;;;;;;;;16.57;46.09;99335.84;4417839;32;19997;-71
2022/03/13 03:37:50;;;;;;;;;;;;;;;16.91;45.12;99334.59;4401864;32;20003;-70
2022/03/13 03:40:16;;;;;;;;;;;;;;;16.77;45.54;99340.53;4403533;32;20270;-70
2022/03/13 03:42:42;;;;;;;;;;;;;;;17.19;44.53;99343.16;4417574;32;19990;-71
2022/03/13 03:45:08;;;;;;;;;;;;;;;16.52;45.99;99327.31;4416422;32;19961;-70
2022/03/13 03:47:33;;;;;;;;;;;;;;;16.45;46.26;99327.81;4414063;32;20001;-70
2022/03/13 03:49:59;;;;;;;;;;;;;;;17.12;44.95;99330.22;4415778;32;19991;-70
2022/03/13 03:52:25;;;;;;;;;;;;;;;16.56;45.51;99322.16;4415145;32;20416;-70
2022/03/13 03:54:52;;;;;;;;;;;;;;;17.20;44.66;99328.41;4419620;32;20359;-71
2022/03/13 03:57:18;;;;;;;;;;;;;;;16.91;44.99;99325.31;4415549;32;20396;-71
2022/03/13 03:59:44;;;;;;;;;;;;;;;17.03;44.76;99324.78;4413302;32;20248;-70
2022/03/13 04:02:09;;;;;;;;;;;;;;;16.60;45.88;99329.13;4415739;32;19976;-70
2022/03/13 04:04:36;;;;;;;;;;;;;;;16.33;46.42;99312.03;4415931;32;20381;-70
2022/03/13 04:07:01;;;;;;;;;;;;;;;16.71;45.56;99334.06;4417131;32;20089;-70
2022/03/13 04:09:30;;;;;;;;;;;;;;;16.99;44.92;99321.44;4415459;32;19996;-70
2022/03/13 04:11:57;;;;;;;;;;;;;;;17.23;44.35;99335.91;4413895;32;20032;-70
2022/03/13 04:14:23;;;;;;;;;;;;;;;16.78;45.41;99320.13;4414737;32;20448;-70
2022/03/13 04:16:49;;;;;;;;;;;;;;;17.40;44.12;99313.91;4418779;32;19993;-71
2022/03/13 04:19:14;;;;;;;;;;;;;;;17.24;44.19;99311.88;4413943;32;20314;-70
2022/03/13 04:21:41;;;;;;;;;;;;;;;17.03;45.05;99324.03;4415577;32;19982;-69
2022/03/13 04:24:08;;;;;;;;;;;;;;;17.16;44.50;99324.28;4415741;32;20112;-70
2022/03/13 04:26:33;;;;;;;;;;;;;;;16.99;44.94;99312.12;4416948;32;20040;-70
2022/03/13 04:28:59;;;;;;;;;;;;;;;16.88;45.17;99307.22;4414586;32;20009;-70
2022/03/13 04:31:25;;;;;;;;;;;;;;;16.92;45.31;99319.12;4412040;32;20011;-71
2022/03/13 04:33:50;;;;;;;;;;;;;;;16.74;45.61;99321.66;4418474;32;20376;-70
2022/03/13 04:36:21;;;;;;;;;;;;;;;16.77;45.67;99321.44;4418352;32;19992;-70
2022/03/13 04:38:47;;;;;;;;;;;;;;;17.22;44.69;99319.38;4416984;32;19964;-70
2022/03/13 04:41:13;;;;;;;;;;;;;;;17.22;44.53;99323.00;4415766;32;19961;-70
2022/03/13 04:43:38;;;;;;;;;;;;;;;17.05;44.86;99310.84;4417873;32;20386;-70
2022/03/13 04:46:04;;;;;;;;;;;;;;;16.98;45.00;99314.22;4421009;32;20407;-70
2022/03/13 04:48:32;;;;;;;;;;;;;;;17.06;44.79;99305.94;4420244;32;20454;-70
2022/03/13 04:50:59;;;;;;;;;;;;;;;16.84;45.28;99301.03;4418615;32;20410;-70
2022/03/13 04:53:25;;;;;;;;;;;;;;;17.34;44.41;99301.75;4421665;32;20004;-70
2022/03/13 04:55:51;;;;;;;;;;;;;;;17.46;44.42;99300.47;4417637;32;19972;-71
2022/03/13 04:58:19;;;;;;;;;;;;;;;17.46;44.63;99291.19;4421128;32;19962;-71
2022/03/13 05:00:47;;;;;;;;;;;;;;;17.46;44.92;99296.88;4418829;32;19958;-70
2022/03/13 05:03:14;;;;;;;;;;;;;;;16.69;46.41;99297.66;4419511;32;19968;-70
2022/03/13 05:05:42;;;;;;;;;;;;;;;17.01;45.95;99286.81;4421715;32;20405;-70
2022/03/13 05:08:13;;;;;;;;;;;;;;;16.71;46.54;99292.25;4421135;32;20352;-70
2022/03/13 05:10:39;;;;;;;;;;;;;;;16.63;46.98;99296.88;4419504;32;19997;-70
2022/03/13 05:13:08;;;;;;;;;;;;;;;16.86;46.66;99291.97;4417492;32;19958;-70
2022/03/13 05:15:34;;;;;;;;;;;;;;;17.08;46.31;99309.03;4419714;32;20401;-70
2022/03/13 05:18:00;;;;;;;;;;;;;;;16.73;46.46;99297.41;4420556;32;19953;-70
2022/03/13 05:20:26;;;;;;;;;;;;;;;16.79;46.66;99298.97;4414532;32;19968;-70
2022/03/13 05:22:51;;;;;;;;;;;;;;;16.71;46.79;99289.41;4416139;32;19962;-70
2022/03/13 05:25:17;;;;;;;;;;;;;;;16.64;47.22;99286.28;4417581;32;20459;-70
2022/03/13 05:27:43;;;;;;;;;;;;;;;16.51;47.42;99286.78;4417645;32;20002;-70
2022/03/13 05:30:09;;;;;;;;;;;;;;;16.49;47.25;99288.59;4417122;32;19997;-70
2022/03/13 05:32:35;;;;;;;;;;;;;;;16.41;47.53;99293.22;4418851;32;19972;-70
2022/03/13 05:35:02;;;;;;;;;;;;;;;16.48;47.18;99276.47;4418763;32;19990;-70
2022/03/13 05:37:28;;;;;;;;;;;;;;;16.15;47.85;99284.09;4418792;32;20463;-70
2022/03/13 05:39:53;;;;;;;;;;;;;;;16.35;47.45;99298.09;4418375;32;19964;-70
2022/03/13 05:42:24;;;;;;;;;;;;;;;16.06;48.13;99285.09;4416612;32;20398;-70
2022/03/13 05:44:51;;;;;;;;;;;;;;;16.27;47.67;99280.00;4419456;32;20034;-70
2022/03/13 05:47:19;;;;;;;;;;;;;;;16.02;48.35;99295.94;4419732;32;20012;-70
2022/03/13 05:49:46;;;;;;;;;;;;;;;16.15;48.15;99284.87;4419076;32;19953;-70
2022/03/13 05:52:13;;;;;;;;;;;;;;;16.71;46.97;99289.41;4417487;32;19969;-70
2022/03/13 05:54:39;;;;;;;;;;;;;;;16.72;47.11;99288.09;4417174;32;20033;-70
2022/03/13 05:57:09;;;;;;;;;;;;;;;16.34;48.08;99291.63;4417451;32;19968;-70
2022/03/13 05:59:35;;;;;;;;;;;;;;;16.37;48.23;99293.44;4418245;32;19995;-70
2022/03/13 06:02:02;;;;;;;;;;;;;;;16.34;48.04;99299.37;4415254;32;19964;-70
2022/03/13 06:04:28;;;;;;;;;;;;;;;16.57;47.74;99281.88;4417709;32;20002;-70
2022/03/13 06:06:53;;;;;;;;;;;;;;;16.02;49.16;99298.78;4418513;32;19995;-70
2022/03/13 06:09:19;;;;;;;;;;;;;;;16.52;48.12;99298.91;4419025;32;20347;-70
2022/03/13 06:11:44;;;;;;;;;;;;;;;15.66;49.96;99289.09;4417660;32;19957;-70
2022/03/13 06:14:10;;;;;;;;;;;;;;;15.89;49.82;99296.41;4417077;32;20001;-70
2022/03/13 06:16:36;;;;;;;;;;;;;;;16.22;49.43;99292.91;4420442;32;20013;-70
2022/03/13 06:19:02;;;;;;;;;;;;;;;16.39;49.14;99301.44;4416264;32;19969;-70
2022/03/13 06:21:29;;;;;;;;;;;;;;;16.45;48.67;99300.22;4420810;32;20093;-70
2022/03/13 06:23:54;;;;;;;;;;;;;;;16.33;48.94;99295.00;4418450;32;19954;-70
2022/03/13 06:26:20;;;;;;;;;;;;;;;16.29;49.02;99297.31;4417960;32;20003;-70
2022/03/13 06:28:46;;;;;;;;;;;;;;;16.51;48.70;99297.38;4415989;32;19994;-69
2022/03/13 06:31:12;;;;;;;;;;;;;;;15.91;49.94;99298.72;4413967;32;19946;-70
2022/03/13 06:33:37;;;;;;;;;;;;;;;15.62;50.85;99285.69;4416381;32;19993;-70
2022/03/13 06:36:03;;;;;;;;;;;;;;;15.93;50.54;99299.75;4416280;32;20108;-70
2022/03/13 06:38:29;;;;;;;;;;;;;;;15.99;50.45;99297.72;4412739;32;20004;-70
2022/03/13 06:40:55;;;;;;;;;;;;;;;16.17;50.18;99313.50;4417795;32;20313;-69
2022/03/13 06:43:20;;;;;;;;;;;;;;;16.43;49.61;99305.63;4414691;32;19972;-70
2022/03/13 06:45:46;;;;;;;;;;;;;;;16.48;49.44;99315.44;4420235;32;19957;-70
2022/03/13 06:48:13;;;;;;;;;;;;;;;16.24;49.79;99312.25;4416921;32;20009;-70
2022/03/13 06:50:39;;;;;;;;;;;;;;;16.78;48.92;99305.94;4418126;32;20382;-70
2022/03/13 06:53:05;;;;;;;;;;;;;;;16.81;48.72;99316.25;4419197;32;20464;-70
2022/03/13 06:55:30;;;;;;;;;;;;;;;16.56;49.07;99317.25;4417762;32;20013;-70
2022/03/13 06:57:56;;;;;;;;;;;;;;;16.79;48.32;99318.84;4416581;32;19953;-70
2022/03/13 07:00:22;;;;;;;;;;;;;;;16.55;48.91;99310.03;4417402;32;20037;-69
2022/03/13 07:02:48;;;;;;;;;;;;;;;16.70;48.55;99309.78;4414075;32;20013;-69
2022/03/13 07:05:14;;;;;;;;;;;;;;;16.79;48.36;99307.50;4416186;32;20021;-69
2022/03/13 07:07:40;;;;;;;;;;;;;;;16.35;48.99;99309.47;4416167;32;20020;-69
2022/03/13 07:10:11;;;;;;;;;;;;;;;16.69;48.16;99311.84;4416416;32;19949;-69
2022/03/13 07:12:37;;;;;;;;;;;;;;;16.46;48.65;99312.34;4416295;32;19985;-69
2022/03/13 07:15:10;;;;;;;;;;;;;;;16.46;48.52;99313.13;4415182;32;20280;-69
2022/03/13 07:17:36;;;;;;;;;;;;;;;16.64;48.09;99320.38;4417395;32;20100;-69
2022/03/13 07:20:02;;;;;;;;;;;;;;;16.92;47.40;99312.66;4415143;32;20017;-69
2022/03/13 07:22:28;;;;;;;;;;;;;;;16.99;46.71;99314.97;4418739;32;20315;-69
2022/03/13 07:24:54;;;;;;;;;;;;;;;16.35;47.96;99301.69;4416976;32;20019;-69
2022/03/13 07:27:20;;;;;;;;;;;;;;;16.71;47.63;99303.59;4417822;32;19972;-69
2022/03/13 07:29:48;;;;;;;;;;;;;;;16.76;47.53;99308.53;4416466;32;19949;-69
2022/03/13 07:32:14;;;;;;;;;;;;;;;17.27;46.69;99313.66;4420706;32;20413;-69
2022/03/13 07:34:39;;;;;;;;;;;;;;;17.21;46.50;99306.47;4417347;32;19961;-69
2022/03/13 07:37:05;;;;;;;;;;;;;;;16.92;46.65;99306.97;4418060;32;19972;-69
2022/03/13 07:39:31;;;;;;;;;;;;;;;16.80;47.22;99309.03;4413797;32;19972;-68
2022/03/13 07:41:56;;;;;;;;;;;;;;;16.35;48.51;99307.37;4417180;32;20026;-68
2022/03/13 07:44:22;;;;;;;;;;;;;;;16.74;47.86;99313.94;4415220;32;19954;-68
2022/03/13 07:46:48;;;;;;;;;;;;;;;16.32;48.46;99307.63;4416132;32;19985;-68
2022/03/13 07:49:13;;;;;;;;;;;;;;;16.85;47.45;99311.12;4416833;32;20012;-68
2022/03/13 07:51:39;;;;;;;;;;;;;;;16.93;47.23;99311.34;4417415;32;20044;-69
2022/03/13 07:54:05;;;;;;;;;;;;;;;17.30;46.33;99318.31;4418059;32;19968;-69
2022/03/13 07:56:31;;;;;;;;;;;;;;;17.34;46.29;99318.81;4418776;32;20394;-69
2022/03/13 07:58:56;;;;;;;;;;;;;;;17.57;45.84;99319.59;4415480;32;19997;-69
2022/03/13 08:01:22;;;;;;;;;;;;;;;17.52;46.10;99324.00;4414346;32;19961;-69
2022/03/13 08:03:48;;;;;;;;;;;;;;;17.21;46.20;99312.91;4417546;32;20292;-69
2022/03/13 08:06:14;;;;;;;;;;;;;;;17.59;45.53;99322.69;4416492;32;19968;-69
2022/03/13 08:08:39;;;;;;;;;;;;;;;17.35;46.04;99334.59;4413676;32;19988;-69
2022/03/13 08:11:06;;;;;;;;;;;;;;;17.14;46.64;99330.47;4414604;32;19961;-68
2022/03/13 08:13:31;;;;;;;;;;;;;;;17.34;46.12;99330.19;4415261;32;20357;-69
2022/03/13 08:15:57;;;;;;;;;;;;;;;17.48;45.73;99331.25;4420850;32;20378;-69
2022/03/13 08:18:23;;;;;;;;;;;;;;;17.53;45.54;99324.78;4416180;32;19956;-69
2022/03/13 08:20:48;;;;;;;;;;;;;;;17.61;45.65;99322.94;4420544;32;20013;-69
2022/03/13 08:23:14;;;;;;;;;;;;;;;17.73;45.33;99328.09;4419542;32;19958;-69
2022/03/13 08:25:40;;;;;;;;;;;;;;;17.80;44.95;99329.63;4421888;32;20323;-68
2022/03/13 08:28:06;;;;;;;;;;;;;;;17.66;45.25;99330.69;4419036;32;20038;-69
2022/03/13 08:30:32;;;;;;;;;;;;;;;17.58;45.36;99326.84;4416815;32;19957;-68
2022/03/13 08:32:58;;;;;;;;;;;;;;;17.82;45.17;99324.97;4416258;32;19990;-68
2022/03/13 08:35:24;;;;;;;;;;;;;;;17.67;45.39;99326.53;4419835;32;19993;-68
2022/03/13 08:37:51;;;;;;;;;;;;;;;17.46;45.75;99333.84;4417063;32;19969;-69
2022/03/13 08:40:17;;;;;;;;;;;;;;;17.51;45.63;99322.47;4419858;32;19965;-69
2022/03/13 08:42:43;;;;;;;;;;;;;;;17.95;44.88;99332.97;4416395;32;19954;-68
2022/03/13 08:45:11;;;;;;;;;;;;;;;17.96;44.53;99336.56;4418491;32;19993;-68
2022/03/13 08:47:38;;;;;;;;;;;;;;;17.21;45.90;99329.19;4409693;32;20335;-68
2022/03/13 08:50:06;;;;;;;;;;;;;;;17.36;46.01;99329.69;4415101;32;19964;-68
2022/03/13 08:52:31;;;;;;;;;;;;;;;17.47;45.81;99333.34;4418527;32;20001;-69
2022/03/13 08:54:57;;;;;;;;;;;;;;;17.66;45.31;99340.00;4420920;32;19991;-68
2022/03/13 08:57:22;;;;;;;;;;;;;;;17.51;45.69;99335.91;4415116;32;20027;-68
2022/03/13 08:59:48;;;;;;;;;;;;;;;17.41;46.16;99343.91;4417463;32;20317;-69
2022/03/13 09:02:17;;;;;;;;;;;;;;;17.12;46.58;99341.59;4421108;32;19953;-69
2022/03/13 09:04:43;;;;;;;;;;;;;;;17.22;46.53;99342.09;4419732;32;19956;-69
2022/03/13 09:07:09;;;;;;;;;;;;;;;17.39;46.28;99352.16;4418375;32;20016;-68
2022/03/13 09:09:35;;;;;;;;;;;;;;;17.56;45.92;99340.81;4418048;32;19961;-69
2022/03/13 09:12:02;;;;;;;;;;;;;;;17.60;45.58;99353.47;4419333;32;20471;-69
2022/03/13 09:14:28;;;;;;;;;;;;;;;17.96;45.00;99351.56;4405824;32;19970;-69
2022/03/13 09:16:53;;;;;;;;;;;;;;;17.88;44.85;99359.88;4420396;32;19985;-69
2022/03/13 09:19:20;;;;;;;;;;;;;;;17.72;45.41;99359.91;4420590;32;20031;-69
2022/03/13 09:21:46;;;;;;;;;;;;;;;18.03;44.80;99361.63;4416839;32;21067;-69
2022/03/13 09:24:11;;;;;;;;;;;;;;;17.83;44.67;99343.56;4417748;32;19975;-69
2022/03/13 09:26:39;;;;;;;;;;;;;;;17.76;45.23;99366.09;4419408;32;20043;-69
2022/03/13 09:29:06;;;;;;;;;;;;;;;17.92;45.03;99359.63;4406139;32;19960;-69
2022/03/13 09:31:32;;;;;;;;;;;;;;;18.25;44.55;99361.56;4417403;32;20008;-69
2022/03/13 09:33:57;;;;;;;;;;;;;;;17.51;45.53;99365.12;4418594;32;20011;-69
2022/03/13 09:36:24;;;;;;;;;;;;;;;18.17;44.39;99363.41;4419499;32;19993;-69
2022/03/13 09:38:49;;;;;;;;;;;;;;;17.83;45.16;99346.41;4417134;32;20003;-69
2022/03/13 09:41:16;;;;;;;;;;;;;;;17.74;44.93;99351.63;4414481;32;19950;-69
2022/03/13 09:43:42;;;;;;;;;;;;;;;17.98;45.14;99342.50;4414648;32;19972;-69
2022/03/13 09:46:07;;;;;;;;;;;;;;;18.69;43.87;99367.06;4422185;32;19957;-69
2022/03/13 09:48:35;;;;;;;;;;;;;;;18.96;42.92;99352.59;4418152;32;19969;-69
2022/03/13 09:51:04;;;;;;;;;;;;;;;18.64;42.88;99348.69;4415371;32;20020;-69
2022/03/13 09:53:31;;;;;;;;;;;;;;;18.28;43.47;99354.81;4419294;32;20053;-69
2022/03/13 09:55:57;;;;;;;;;;;;;;;18.41;43.46;99381.44;4417918;32;19988;-69
2022/03/13 09:58:23;;;;;;;;;;;;;;;18.75;42.36;99367.81;4416448;32;19972;-69
2022/03/13 10:00:49;;;;;;;;;;;;;;;19.07;41.81;99383.13;4414401;32;20039;-69
2022/03/13 10:03:14;;;;;;;;;;;;;;;19.59;41.37;99389.47;4416266;32;19985;-69
2022/03/13 10:05:42;;;;;;;;;;;;;;;18.63;42.81;99381.34;4417855;32;19995;-69
2022/03/13 10:08:08;;;;;;;;;;;;;;;18.62;42.65;99376.16;4416067;32;20506;-69
2022/03/13 10:10:44;;;;;;;;;;;;;;;18.83;42.44;99386.66;4416889;32;20005;-69
2022/03/13 10:13:11;;;;;;;;;;;;;;;19.49;41.19;99385.41;4415231;32;19987;-69
2022/03/13 10:15:41;;;;;;;;;;;;;;;19.76;40.00;99378.66;4416705;32;19958;-69
2022/03/13 10:18:17;;;;;;;;;;;;;;;19.73;40.15;99371.94;4417995;32;20041;-69
2022/03/13 10:20:44;;;;;;;;;;;;;;;19.85;39.56;99381.16;4417473;32;19964;-69
2022/03/13 10:23:11;;;;;;;;;;;;;;;19.11;40.39;99380.75;4416599;32;20004;-70
2022/03/13 10:25:39;;;;;;;;;;;;;;;19.19;39.93;99381.75;4414826;32;20073;-70
2022/03/13 10:28:24;;;;;;;;;;;;;;;19.09;40.40;99389.06;4417430;32;19949;-70
2022/03/13 10:31:06;;;;;;;;;;;;;;;19.39;40.08;99375.66;4414382;32;19966;-70
2022/03/13 10:36:31;;;;;;;;;;;;;;;19.33;39.58;99387.09;3948540;32;15854599;-70
2022/03/13 10:38:59;;;;;;;;;;;;;;;19.81;38.58;99392.09;4435344;32;20004;-70
2022/03/13 10:41:42;;;;;;;;;;;;;;;19.22;39.19;99400.63;4423390;32;19953;-70
2022/03/13 10:44:13;;;;;;;;;;;;;;;20.03;37.54;99389.00;4434830;32;20048;-70
2022/03/13 10:46:40;;;;;;;;;;;;;;;19.65;37.17;99393.81;4435312;32;19985;-70
2022/03/13 10:49:09;;;;;;;;;;;;;;;20.24;36.70;99395.81;4435134;32;20082;-70
2022/03/13 10:51:36;;;;;;;;;;;;;;;20.14;36.83;99406.06;4435768;32;19945;-70
2022/03/13 10:54:03;;;;;;;;;;;;;;;20.54;36.14;99404.28;4422995;32;20349;-70
2022/03/13 10:56:29;;;;;;;;;;;;;;;21.01;35.24;99394.00;4433839;32;21069;-71
2022/03/13 10:58:54;;;;;;;;;;;;;;;21.15;35.09;99409.94;4431447;32;20112;-71
2022/03/13 11:01:23;;;;;;;;;;;;;;;21.59;34.18;99403.50;4433102;32;19969;-71
2022/03/13 11:06:28;;;;;;;;;;;;;;;21.67;33.80;99405.16;3953083;32;15723550;-71
2022/03/13 11:08:55;;;;;;;;;;;;;;;21.70;33.93;99398.34;4428143;32;19953;-71
2022/03/13 11:11:22;;;;;;;;;;;;;;;22.02;33.04;99392.59;4425473;32;19993;-71
2022/03/13 11:13:52;;;;;;;;;;;;;;;21.96;33.03;99414.06;4430581;32;19988;-71
2022/03/13 11:16:33;;;;;;;;;;;;;;;21.27;33.60;99405.59;4428465;32;20391;-71
2022/03/13 11:19:06;;;;;;;;;;;;;;;21.36;34.15;99419.50;4430681;32;20413;-71
2022/03/13 11:21:32;;;;;;;;;;;;;;;20.83;34.53;99401.28;4430847;32;20354;-71
2022/03/13 11:24:00;;;;;;;;;;;;;;;21.09;34.43;99407.16;4428368;32;20024;-71
2022/03/13 11:26:29;;;;;;;;;;;;;;;21.10;34.33;99405.84;4428211;32;19958;-71
2022/03/13 11:28:55;;;;;;;;;;;;;;;21.62;33.27;99405.25;4428999;32;20009;-71
2022/03/13 11:31:38;;;;;;;;;;;;;;;21.70;33.21;99404.06;4427449;32;20054;-71
2022/03/13 11:36:49;;;;;;;;;;;;;;;22.89;31.42;99434.34;3952886;32;15725408;-71
2022/03/13 11:39:31;;;;;;;;;;;;;;;22.89;31.42;99434.34;4431380;32;19985;-71
2022/03/13 11:41:58;;;;;;;;;;;;;;;21.67;32.32;99415.84;4427333;32;19949;-71
2022/03/13 11:46:59;;;;;;;;;;;;;;;21.07;33.87;99431.88;3962032;31;15715983;-71
2022/03/13 11:54:53;;;;;;;;;;;;;;;21.46;32.81;99429.22;3963505;31;15716229;-71
2022/03/13 11:57:20;;;;;;;;;;;;;;;21.46;32.81;99429.22;4443332;32;19989;-71
2022/03/13 11:59:49;;;;;;;;;;;;;;;21.77;32.68;99442.00;4436723;32;20310;-70
2022/03/13 12:02:34;;;;;;;;;;;;;;;21.90;32.28;99439.19;4441953;32;19949;-70
2022/03/13 12:05:20;;;;;;;;;;;;;;;21.70;32.31;99435.56;4443687;32;19977;-71
2022/03/13 12:08:05;;;;;;;;;;;;;;;21.17;32.95;99448.12;4442808;32;20041;-71
2022/03/13 12:10:35;;;;;;;;;;;;;;;21.26;33.35;99442.00;4441407;32;20005;-71
2022/03/13 12:13:02;;;;;;;;;;;;;;;20.54;34.09;99436.50;4444063;32;19945;-70
2022/03/13 12:15:28;;;;;;;;;;;;;;;21.03;33.58;99454.31;4445418;32;19989;-70
2022/03/13 12:17:56;;;;;;;;;;;;;;;20.02;34.49;99441.72;4440620;32;20291;-70
2022/03/13 12:20:24;;;;;;;;;;;;;;;20.32;34.31;99441.69;4443079;32;20046;-70
2022/03/13 12:22:53;;;;;;;;;;;;;;;20.21;34.39;99454.00;4442865;32;19997;-71
2022/03/13 12:25:23;;;;;;;;;;;;;;;19.89;34.98;99446.53;4440751;32;19968;-70
2022/03/13 12:27:49;;;;;;;;;;;;;;;20.38;34.63;99445.25;4442832;32;20077;-72
2022/03/13 12:30:22;;;;;;;;;;;;;;;20.62;34.33;99448.84;4440462;32;19965;-71
2022/03/13 12:32:47;;;;;;;;;;;;;;;20.52;33.88;99438.34;4440564;32;19949;-71
2022/03/13 12:35:13;;;;;;;;;;;;;;;20.09;34.24;99423.25;4438767;32;19988;-72
2022/03/13 12:37:38;;;;;;;;;;;;;;;20.25;34.42;99439.44;4439476;32;20380;-71
2022/03/13 12:40:05;;;;;;;;;;;;;;;20.56;34.15;99445.28;4441554;32;20414;-71
2022/03/13 12:42:34;;;;;;;;;;;;;;;20.65;34.12;99461.31;4441981;32;19991;-70
2022/03/13 12:45:04;;;;;;;;;;;;;;;20.88;33.81;99446.19;4443272;32;20589;-71
2022/03/13 12:47:32;;;;;;;;;;;;;;;20.65;34.63;99442.06;4442947;32;19945;-70
2022/03/13 12:49:58;;;;;;;;;;;;;;;21.52;33.67;99455.66;4439305;32;20228;-70
2022/03/13 12:52:24;;;;;;;;;;;;;;;22.40;31.98;99465.56;4438038;32;19996;-70
2022/03/13 12:54:54;;;;;;;;;;;;;;;23.35;30.72;99456.53;4441594;32;19992;-71
2022/03/13 12:57:21;;;;;;;;;;;;;;;23.38;30.04;99449.69;4441821;32;19953;-71
2022/03/13 12:59:48;;;;;;;;;;;;;;;23.27;30.14;99455.69;4441975;32;20346;-70
2022/03/13 13:04:51;;;;;;;;;;;;;;;24.66;28.62;99440.06;3951877;32;15728579;-71